Time;durP1;ratioP1;P1;durP2;ratioP2;P2;SDS_P1;SDS_P2;PMS_P1;PMS_P2;Temp;Humidity;BMP_temperature;BMP_pressure;BME280_temperature;BME280_humidity;BME280_pressure;Samples;Min_cycle;Max_cycle;Signal;HPM_P1;HPM_P2
2022/06/22 00:00:03;;;;;;;4.50;2.12;;;28.20;92.60;;;;;;1874688;74;21159;-87
2022/06/22 00:02:37;;;;;;;3.72;2.00;;;28.30;92.50;;;;;;1929898;73;21099;-85
2022/06/22 00:05:10;;;;;;;4.87;2.02;;;28.30;92.50;;;;;;1857322;76;21242;-83
2022/06/22 00:07:45;;;;;;;4.20;1.82;;;28.30;92.50;;;;;;1899608;74;21564;-83
2022/06/22 00:10:19;;;;;;;6.28;2.20;;;28.30;92.50;;;;;;1863149;76;21615;-84
2022/06/22 00:12:52;;;;;;;6.33;2.42;;;28.30;92.30;;;;;;1950110;73;21104;-83
2022/06/22 00:15:25;;;;;;;4.20;1.75;;;28.30;92.30;;;;;;1939758;73;21263;-84
2022/06/22 00:17:56;;;;;;;3.77;1.72;;;28.30;92.20;;;;;;1892724;74;21158;-84
2022/06/22 00:20:30;;;;;;;4.85;2.00;;;28.30;92.20;;;;;;1943752;73;21124;-84
2022/06/22 00:23:03;;;;;;;7.28;1.75;;;28.20;92.30;;;;;;1900091;74;21120;-83
2022/06/22 00:25:37;;;;;;;3.62;1.52;;;28.30;92.30;;;;;;1850839;76;21159;-83
2022/06/22 00:28:12;;;;;;;4.58;1.85;;;28.30;92.20;;;;;;1854852;76;21160;-83
2022/06/22 00:30:45;;;;;;;4.30;1.42;;;28.20;92.10;;;;;;1856620;76;21175;-84
2022/06/22 00:33:19;;;;;;;3.22;2.00;;;28.20;92.30;;;;;;1877181;76;21070;-86
2022/06/22 00:35:52;;;;;;;3.67;1.52;;;28.20;92.50;;;;;;1939687;73;21134;-84
2022/06/22 00:38:26;;;;;;;4.87;1.70;;;28.20;92.60;;;;;;1926504;73;21531;-84
2022/06/22 00:40:59;;;;;;;6.10;2.00;;;28.20;92.60;;;;;;1868318;76;21090;-85
2022/06/22 00:43:33;;;;;;;4.62;2.47;;;28.20;92.50;;;;;;1890197;75;21629;-84
2022/06/22 00:46:05;;;;;;;6.55;3.22;;;28.30;92.40;;;;;;1872918;76;21115;-83
2022/06/22 00:48:36;;;;;;;6.72;4.08;;;28.30;92.30;;;;;;1889075;74;21644;-85
2022/06/22 00:51:11;;;;;;;8.05;4.00;;;28.40;92.00;;;;;;1900012;74;21180;-83
2022/06/22 00:53:44;;;;;;;7.25;4.62;;;28.40;92.10;;;;;;1940338;73;21194;-82
2022/06/22 00:56:18;;;;;;;7.00;3.72;;;28.40;92.10;;;;;;1932614;73;21116;-85
2022/06/22 00:58:51;;;;;;;7.92;3.30;;;28.50;92.30;;;;;;1936226;73;21696;-84
2022/06/22 01:01:24;;;;;;;6.97;2.95;;;28.50;92.20;;;;;;1936913;73;21183;-84
2022/06/22 01:03:58;;;;;;;4.03;2.22;;;28.50;92.30;;;;;;1932051;73;21229;-85
2022/06/22 01:06:31;;;;;;;5.08;2.47;;;28.50;92.40;;;;;;1930273;73;21099;-84
2022/06/22 01:09:05;;;;;;;4.17;2.62;;;28.60;92.10;;;;;;1898623;74;21242;-84
2022/06/22 01:14:15;;;;;;;5.40;2.47;;;28.70;92.30;;;;;;1931640;73;21741;-72
2022/06/22 01:16:49;;;;;;;8.65;2.83;;;28.70;92.30;;;;;;1892258;74;21598;-74
2022/06/22 01:19:22;;;;;;;5.55;2.27;;;28.70;92.30;;;;;;1936881;73;21252;-71
2022/06/22 01:21:55;;;;;;;3.95;2.55;;;28.70;92.50;;;;;;1935096;73;21156;-73
2022/06/22 01:24:29;;;;;;;3.95;2.22;;;28.70;92.30;;;;;;1937684;73;21112;-73
2022/06/22 01:27:02;;;;;;;5.62;2.90;;;28.80;92.30;;;;;;1939215;73;21201;-72
2022/06/22 01:29:33;;;;;;;6.28;2.37;;;28.90;92.30;;;;;;1937466;73;21679;-74
2022/06/22 01:32:06;;;;;;;5.08;2.60;;;28.90;92.20;;;;;;1930986;73;21256;-74
2022/06/22 01:34:40;;;;;;;5.53;3.08;;;29.00;92.00;;;;;;1940726;73;21692;-76
2022/06/22 01:37:14;;;;;;;7.78;2.72;;;29.00;92.00;;;;;;1889686;74;21214;-83
2022/06/22 01:39:45;;;;;;;6.67;2.52;;;29.10;91.90;;;;;;1905764;73;21571;-83
2022/06/22 01:42:19;;;;;;;5.90;2.85;;;29.10;91.40;;;;;;1888640;74;21237;-82
2022/06/22 01:44:53;;;;;;;5.62;2.70;;;29.20;91.80;;;;;;1889015;75;21124;-83
2022/06/22 01:47:26;;;;;;;6.28;2.60;;;29.30;91.80;;;;;;1939144;73;21180;-81
2022/06/22 01:49:59;;;;;;;5.22;2.65;;;29.40;91.80;;;;;;1932260;73;21179;-82
2022/06/22 01:52:33;;;;;;;6.20;3.02;;;29.50;91.70;;;;;;1917068;73;21246;-82
2022/06/22 01:55:06;;;;;;;6.55;2.50;;;29.50;91.60;;;;;;1912641;73;21432;-81
2022/06/22 01:57:49;;;;;;;6.72;2.72;;;29.50;91.50;;;;;;1927912;73;21180;-82
2022/06/22 02:00:15;;;;;;;6.28;2.87;;;29.50;91.60;;;;;;1885709;75;21197;-83
2022/06/22 02:02:48;;;;;;;6.12;2.90;;;29.60;91.80;;;;;;1921256;72;21189;-83
2022/06/22 02:05:21;;;;;;;4.00;2.50;;;29.60;91.60;;;;;;1883156;75;21252;-83
2022/06/22 02:07:56;;;;;;;4.87;2.30;;;29.70;91.20;;;;;;1927777;73;21587;-82
2022/06/22 02:10:29;;;;;;;4.75;2.62;;;29.80;91.40;;;;;;1939528;73;21452;-82
2022/06/22 02:13:02;;;;;;;4.50;2.33;;;30.00;91.10;;;;;;1918945;74;21137;-83
2022/06/22 02:15:36;;;;;;;5.12;2.72;;;30.20;90.70;;;;;;1912967;74;21173;-83
2022/06/22 02:18:09;;;;;;;6.97;3.00;;;30.30;91.10;;;;;;1913511;73;21159;-81
2022/06/22 02:20:41;;;;;;;5.83;3.05;;;30.50;90.70;;;;;;1920080;73;21153;-83
2022/06/22 02:23:15;;;;;;;8.93;2.87;;;30.60;90.20;;;;;;1913815;74;21071;-81
2022/06/22 02:25:48;;;;;;;6.33;2.80;;;30.60;89.10;;;;;;1927921;74;21869;-83
2022/06/22 02:28:20;;;;;;;6.25;2.62;;;30.60;88.70;;;;;;1933361;73;21145;-83
2022/06/22 02:30:52;;;;;;;8.23;3.65;;;30.60;88.80;;;;;;1918128;74;21207;-82
2022/06/22 02:33:25;;;;;;;7.20;4.12;;;30.60;89.70;;;;;;1859896;76;21184;-80
2022/06/22 02:36:00;;;;;;;7.85;3.40;;;30.60;89.30;;;;;;1933764;73;21116;-80
2022/06/22 02:38:36;;;;;;;6.08;3.05;;;30.70;89.70;;;;;;1895103;74;21139;-81
2022/06/22 02:46:18;;;;;;;6.28;3.67;;;31.00;88.80;;;;;;1919161;73;21076;-82
2022/06/22 02:48:52;;;;;;;5.65;3.62;;;31.10;88.60;;;;;;1911768;72;21355;-81
2022/06/22 02:51:26;;;;;;;6.90;4.03;;;31.20;86.90;;;;;;1924508;73;21079;-82
2022/06/22 02:53:59;;;;;;;5.78;3.85;;;31.30;87.20;;;;;;1923295;73;21069;-82
2022/06/22 02:56:32;;;;;;;7.00;3.75;;;31.50;86.80;;;;;;1933288;72;21143;-83
2022/06/22 02:59:04;;;;;;;7.35;3.30;;;31.70;86.20;;;;;;1913281;74;21159;-83
2022/06/22 03:01:38;;;;;;;6.50;3.40;;;31.80;84.40;;;;;;1933279;73;21660;-83
2022/06/22 03:04:12;;;;;;;7.12;3.67;;;31.90;84.30;;;;;;1883244;75;21201;-82
2022/06/22 03:06:45;;;;;;;6.30;3.25;;;32.00;84.10;;;;;;1916137;72;21744;-82
2022/06/22 03:09:17;;;;;;;8.78;3.55;;;32.00;84.40;;;;;;1939605;73;21622;-82
2022/06/22 03:11:51;;;;;;;7.47;3.17;;;32.10;84.00;;;;;;1940407;73;21137;-83
2022/06/22 03:14:24;;;;;;;6.72;3.17;;;32.10;84.10;;;;;;1849817;76;21193;-83
2022/06/22 03:16:58;;;;;;;5.40;2.95;;;32.20;83.70;;;;;;1924997;73;21146;-82
2022/06/22 03:19:31;;;;;;;5.10;2.90;;;32.20;83.70;;;;;;1934008;73;21437;-82
2022/06/22 03:22:02;;;;;;;8.68;2.67;;;32.40;83.30;;;;;;1951892;73;21109;-82
2022/06/22 03:24:36;;;;;;;5.42;2.58;;;32.50;82.30;;;;;;1934776;73;21154;-82
2022/06/22 03:27:09;;;;;;;5.00;2.30;;;32.60;80.40;;;;;;1855277;76;21180;-83
2022/06/22 03:29:42;;;;;;;4.70;2.67;;;32.50;80.70;;;;;;1927956;73;21104;-82
2022/06/22 03:32:16;;;;;;;4.72;1.98;;;32.50;81.00;;;;;;1893866;75;21604;-82
2022/06/22 03:34:49;;;;;;;3.80;1.80;;;32.50;80.90;;;;;;1928691;73;21084;-82
2022/06/22 03:37:23;;;;;;;4.60;2.05;;;32.50;80.40;;;;;;1937538;73;21127;-82
2022/06/22 03:39:56;;;;;;;4.05;1.90;;;32.60;80.00;;;;;;1879366;76;21144;-82
2022/06/22 03:42:30;;;;;;;5.83;2.58;;;32.70;80.60;;;;;;1923633;73;21640;-82
2022/06/22 03:45:04;;;;;;;7.87;2.90;;;32.70;80.00;;;;;;1881936;75;21170;-83
2022/06/22 03:47:37;;;;;;;6.85;2.60;;;32.70;79.90;;;;;;1929966;73;21623;-83
2022/06/22 03:50:11;;;;;;;5.40;2.37;;;32.70;80.20;;;;;;1889513;75;21237;-83
2022/06/22 03:52:44;;;;;;;7.67;2.80;;;32.70;80.50;;;;;;1943166;73;21681;-83
2022/06/22 03:55:18;;;;;;;6.10;2.50;;;32.60;79.60;;;;;;1926979;73;21079;-83
2022/06/22 03:57:51;;;;;;;4.12;2.33;;;32.60;80.30;;;;;;1945413;73;21174;-83
2022/06/22 04:00:24;;;;;;;4.50;2.22;;;32.70;80.40;;;;;;1942526;73;21105;-83
2022/06/22 04:02:55;;;;;;;3.72;1.92;;;32.70;80.70;;;;;;1937268;73;21685;-82
2022/06/22 04:05:32;;;;;;;4.37;1.77;;;32.80;79.10;;;;;;1893362;76;21133;-85
2022/06/22 04:08:05;;;;;;;2.92;1.95;;;32.90;76.80;;;;;;1926804;73;21199;-83
2022/06/22 04:10:44;;;;;;;3.77;2.30;;;32.90;76.10;;;;;;1941655;73;21063;-83
2022/06/22 04:13:20;;;;;;;7.22;2.58;;;33.00;77.80;;;;;;1941460;73;21222;-83
2022/06/22 04:15:54;;;;;;;6.33;2.42;;;33.00;78.90;;;;;;1894503;75;21151;-83
2022/06/22 04:18:30;;;;;;;5.05;2.25;;;33.10;79.90;;;;;;1901882;75;21589;-83
2022/06/22 04:21:02;;;;;;;3.47;2.08;;;33.20;79.70;;;;;;1931986;73;21096;-83
2022/06/22 04:23:35;;;;;;;6.10;2.75;;;33.30;79.10;;;;;;1925332;73;21140;-83
2022/06/22 04:26:08;;;;;;;5.00;2.10;;;33.50;79.20;;;;;;1932605;73;21116;-81
2022/06/22 04:28:42;;;;;;;5.05;1.90;;;33.60;77.50;;;;;;1930316;72;21047;-82
2022/06/22 04:31:15;;;;;;;5.10;2.08;;;33.80;77.10;;;;;;1930512;73;21536;-83
2022/06/22 04:33:49;;;;;;;4.92;1.80;;;33.80;76.20;;;;;;1931814;73;22008;-82
2022/06/22 04:36:23;;;;;;;3.47;1.82;;;34.00;75.60;;;;;;1925782;73;21200;-82
2022/06/22 04:38:56;;;;;;;4.40;2.00;;;34.10;75.80;;;;;;1951844;73;21180;-82
2022/06/22 04:41:30;;;;;;;5.03;2.10;;;34.20;73.50;;;;;;1953230;73;21075;-83
2022/06/22 04:44:03;;;;;;;3.87;1.87;;;34.20;74.40;;;;;;1939242;73;21582;-82
2022/06/22 04:46:36;;;;;;;4.28;2.22;;;34.30;72.30;;;;;;1937302;73;21091;-83
2022/06/22 04:49:10;;;;;;;4.87;2.70;;;34.30;72.70;;;;;;1932725;73;21214;-82
2022/06/22 04:51:44;;;;;;;6.05;2.10;;;34.30;73.90;;;;;;1931563;73;21154;-82
2022/06/22 04:54:17;;;;;;;3.87;2.47;;;34.40;72.20;;;;;;1932580;73;22236;-82
2022/06/22 04:56:51;;;;;;;4.87;2.30;;;34.40;71.90;;;;;;1927361;73;21113;-82
2022/06/22 04:59:23;;;;;;;3.95;1.82;;;34.40;73.10;;;;;;1908401;74;21132;-82
2022/06/22 05:01:56;;;;;;;5.85;2.05;;;34.50;72.50;;;;;;1938970;73;21563;-82
2022/06/22 05:04:30;;;;;;;4.47;1.75;;;34.40;71.50;;;;;;1896575;74;21668;-82
2022/06/22 05:07:03;;;;;;;4.97;1.80;;;34.40;71.40;;;;;;1936666;73;21162;-84
2022/06/22 05:09:37;;;;;;;2.92;1.70;;;34.40;70.60;;;;;;1924372;74;21585;-83
2022/06/22 05:12:10;;;;;;;9.50;2.70;;;34.40;70.20;;;;;;1928395;73;21254;-83
2022/06/22 05:14:42;;;;;;;5.83;1.70;;;34.40;68.10;;;;;;1930854;73;21104;-82
2022/06/22 05:17:16;;;;;;;4.00;2.17;;;34.50;69.00;;;;;;1934035;73;21603;-83
2022/06/22 05:19:49;;;;;;;4.97;1.87;;;34.60;69.10;;;;;;1932462;73;21525;-83
2022/06/22 05:22:20;;;;;;;4.17;1.80;;;34.60;67.50;;;;;;1945553;72;21092;-83
2022/06/22 05:24:54;;;;;;;2.70;1.30;;;34.70;68.10;;;;;;1877466;76;21178;-83
2022/06/22 05:27:27;;;;;;;3.67;1.22;;;34.70;65.80;;;;;;1923289;73;21583;-83
2022/06/22 05:30:00;;;;;;;3.65;1.30;;;34.70;67.00;;;;;;1947621;73;21048;-84
2022/06/22 05:32:33;;;;;;;3.47;1.30;;;34.70;66.10;;;;;;1928282;73;21665;-83
2022/06/22 05:35:07;;;;;;;5.60;1.98;;;34.70;68.10;;;;;;1883165;75;21172;-82
2022/06/22 05:37:43;;;;;;;4.95;2.35;;;34.80;68.60;;;;;;1939893;73;21158;-84
2022/06/22 05:40:15;;;;;;;4.03;1.15;;;34.90;67.70;;;;;;1941665;73;21177;-83
2022/06/22 05:42:46;;;;;;;4.70;1.52;;;35.00;64.60;;;;;;1933185;73;21613;-83
2022/06/22 05:45:21;;;;;;;2.75;1.70;;;35.00;64.50;;;;;;1949844;73;21689;-82
2022/06/22 05:47:53;;;;;;;3.70;1.27;;;35.00;66.50;;;;;;1949879;72;21587;-83
2022/06/22 05:50:26;;;;;;;3.27;1.57;;;35.00;66.60;;;;;;1885685;75;21132;-82
2022/06/22 05:53:00;;;;;;;2.67;1.00;;;35.00;64.90;;;;;;1867670;75;21145;-82
2022/06/22 05:55:33;;;;;;;2.17;1.22;;;35.00;62.40;;;;;;1874666;75;21157;-82
2022/06/22 05:58:07;;;;;;;3.20;1.15;;;35.00;62.80;;;;;;1925424;73;21131;-82
2022/06/22 06:00:40;;;;;;;3.60;1.57;;;34.80;63.80;;;;;;1937123;73;21089;-83
2022/06/22 06:03:13;;;;;;;5.65;2.30;;;34.60;65.60;;;;;;1894247;74;21890;-83
2022/06/22 06:05:47;;;;;;;5.75;1.57;;;34.50;65.60;;;;;;1904648;73;21237;-82
2022/06/22 06:08:23;;;;;;;3.08;1.40;;;34.50;66.10;;;;;;1896675;74;21105;-83
2022/06/22 06:10:55;;;;;;;3.33;1.60;;;34.70;65.60;;;;;;1931153;72;21441;-84
2022/06/22 06:13:28;;;;;;;5.67;2.40;;;34.70;65.70;;;;;;1917764;73;21153;-83
2022/06/22 06:16:07;;;;;;;2.70;1.42;;;34.80;65.60;;;;;;1909424;73;21114;-82
2022/06/22 06:18:59;;;;;;;3.92;1.50;;;34.80;66.90;;;;;;1863824;72;21181;-82
2022/06/22 06:21:33;;;;;;;4.45;1.52;;;34.80;66.30;;;;;;1789371;80;21198;-81
2022/06/22 06:24:06;;;;;;;3.98;1.42;;;34.90;65.60;;;;;;1822856;77;21105;-83
2022/06/22 06:29:14;;;;;;;2.40;1.20;;;35.00;65.60;;;;;;1829441;78;21141;-82
2022/06/22 06:31:47;;;;;;;2.02;1.27;;;35.00;62.30;;;;;;1829963;78;21168;-82
2022/06/22 06:34:21;;;;;;;5.03;2.00;;;34.90;63.80;;;;;;1838292;77;21170;-81
2022/06/22 06:36:55;;;;;;;3.47;2.10;;;34.80;65.90;;;;;;1829498;77;21177;-83
2022/06/22 06:39:29;;;;;;;7.87;2.30;;;34.70;66.70;;;;;;1834678;78;21638;-82
2022/06/22 06:42:05;;;;;;;3.65;1.50;;;34.70;67.20;;;;;;1823280;78;22031;-72
2022/06/22 06:44:36;;;;;;;4.08;1.90;;;34.60;68.10;;;;;;1831496;77;21151;-75
2022/06/22 06:47:10;;;;;;;6.83;1.90;;;34.60;67.70;;;;;;1819220;77;21578;-76
2022/06/22 06:49:47;;;;;;;5.35;1.75;;;34.50;67.30;;;;;;1814818;77;21817;-76
2022/06/22 06:52:20;;;;;;;4.58;1.70;;;34.50;67.70;;;;;;1832864;77;21691;-75
2022/06/22 06:54:54;;;;;;;5.37;1.75;;;34.50;67.60;;;;;;1836865;77;21650;-77
2022/06/22 06:57:27;;;;;;;4.42;1.62;;;34.50;67.00;;;;;;1836971;77;21227;-76
2022/06/22 07:00:00;;;;;;;4.90;1.57;;;34.40;67.40;;;;;;1835690;77;21249;-76
2022/06/22 07:02:33;;;;;;;3.85;1.75;;;34.40;67.00;;;;;;1836172;78;21235;-75
2022/06/22 07:05:07;;;;;;;3.08;1.62;;;34.40;67.30;;;;;;1835664;76;21177;-76
2022/06/22 07:07:41;;;;;;;3.95;1.47;;;34.40;67.30;;;;;;1836495;77;21617;-75
2022/06/22 07:10:14;;;;;;;3.15;1.70;;;34.30;66.60;;;;;;1777806;79;21694;-75
2022/06/22 07:12:47;;;;;;;6.10;1.77;;;34.30;66.90;;;;;;1802142;78;21783;-74
2022/06/22 07:15:22;;;;;;;5.10;1.57;;;34.20;67.10;;;;;;1803884;78;21270;-73
2022/06/22 07:17:55;;;;;;;11.38;2.00;;;34.20;67.10;;;;;;1778543;80;21106;-74
2022/06/22 07:20:28;;;;;;;5.12;1.77;;;34.20;66.60;;;;;;1855335;75;21147;-74
2022/06/22 07:23:02;;;;;;;7.62;2.70;;;34.30;67.90;;;;;;1893951;75;21613;-74
2022/06/22 07:25:35;;;;;;;5.40;2.98;;;34.30;71.30;;;;;;1897594;75;21137;-73
2022/06/22 07:28:08;;;;;;;8.85;3.00;;;34.30;71.80;;;;;;1883494;75;21190;-74
2022/06/22 07:30:43;;;;;;;5.05;3.30;;;34.30;72.40;;;;;;1881927;75;21196;-75
2022/06/22 07:33:17;;;;;;;8.48;3.27;;;34.20;72.20;;;;;;1876922;75;21171;-75
2022/06/22 07:35:50;;;;;;;4.92;2.92;;;34.20;75.40;;;;;;1876669;75;21159;-75
2022/06/22 07:38:24;;;;;;;6.03;3.65;;;34.20;76.10;;;;;;1867680;75;21225;-75
2022/06/22 07:43:31;;;;;;;9.85;3.60;;;34.10;77.30;;;;;;1891464;75;21146;-74
2022/06/22 07:46:04;;;;;;;7.00;2.65;;;33.90;77.80;;;;;;1887235;75;21141;-74
2022/06/22 07:48:39;;;;;;;8.53;2.90;;;33.80;78.20;;;;;;1886060;76;21197;-75
2022/06/22 07:51:12;;;;;;;4.20;2.33;;;33.90;78.10;;;;;;1878350;74;21137;-76
2022/06/22 07:53:47;;;;;;;6.85;3.30;;;33.90;77.20;;;;;;1892200;74;21124;-74
2022/06/22 07:56:25;;;;;;;5.85;3.37;;;34.00;76.70;;;;;;1871335;75;22005;-75
2022/06/22 07:59:03;;;;;;;6.78;3.27;;;34.10;77.90;;;;;;1909675;75;21168;-75
2022/06/22 08:01:54;;;;;;;6.72;3.52;;;34.00;77.00;;;;;;1903499;74;21654;-74
2022/06/22 08:04:31;;;;;;;8.43;4.20;;;34.00;75.80;;;;;;1923297;73;21717;-75
2022/06/22 08:07:05;;;;;;;6.97;3.90;;;33.90;77.60;;;;;;1876593;75;21082;-75
2022/06/22 08:09:39;;;;;;;5.75;3.58;;;33.80;76.90;;;;;;1922670;73;21705;-72
2022/06/22 08:12:12;;;;;;;6.90;3.20;;;33.80;76.60;;;;;;1926465;73;21112;-74
2022/06/22 08:14:46;;;;;;;4.60;2.80;;;33.70;76.10;;;;;;1921310;73;21084;-75
2022/06/22 08:17:20;;;;;;;5.45;2.90;;;33.60;76.30;;;;;;1910275;73;21162;-75
2022/06/22 08:19:53;;;;;;;5.97;2.60;;;33.60;76.00;;;;;;1931801;73;21591;-75
2022/06/22 08:22:26;;;;;;;9.78;3.77;;;33.50;76.10;;;;;;1933052;72;21191;-74
2022/06/22 08:24:59;;;;;;;7.03;3.45;;;33.50;76.90;;;;;;1929465;73;21080;-75
2022/06/22 08:27:31;;;;;;;9.70;3.40;;;33.50;77.00;;;;;;1932730;73;21151;-75
2022/06/22 08:30:03;;;;;;;5.67;2.35;;;33.50;78.20;;;;;;1908772;73;21189;-74
2022/06/22 08:32:37;;;;;;;5.95;1.87;;;33.30;74.60;;;;;;1894543;73;21632;-73
2022/06/22 08:35:11;;;;;;;5.80;1.87;;;33.00;75.20;;;;;;1889468;74;21226;-72
2022/06/22 08:37:46;;;;;;;6.58;1.85;;;32.50;75.40;;;;;;1904547;73;21797;-72
2022/06/22 08:40:19;;;;;;;4.53;1.30;;;32.20;75.30;;;;;;1947719;73;21217;-73
2022/06/22 08:42:53;;;;;;;5.12;2.05;;;31.80;74.60;;;;;;1890650;74;21112;-75
2022/06/22 08:45:28;;;;;;;4.45;1.70;;;31.60;75.30;;;;;;1915489;73;21599;-74
2022/06/22 08:48:08;;;;;;;5.12;1.47;;;31.30;75.20;;;;;;1924138;73;21614;-75
2022/06/22 08:50:43;;;;;;;5.95;1.22;;;31.20;75.50;;;;;;1910551;73;21222;-72
2022/06/22 08:53:23;;;;;;;2.92;1.55;;;31.10;75.70;;;;;;1926105;73;21209;-72
2022/06/22 08:56:15;;;;;;;7.62;1.15;;;31.00;74.90;;;;;;1926301;73;21175;-73
2022/06/22 08:58:51;;;;;;;2.12;1.22;;;31.00;74.50;;;;;;1910061;73;21666;-73
2022/06/22 09:01:25;;;;;;;1.95;1.00;;;31.00;75.30;;;;;;1917213;73;21713;-73
2022/06/22 09:03:59;;;;;;;4.05;1.02;;;31.00;74.80;;;;;;1918348;73;21178;-72
2022/06/22 09:06:34;;;;;;;2.67;0.80;;;30.80;74.70;;;;;;1937920;73;21787;-72
2022/06/22 09:09:14;;;;;;;4.25;1.00;;;30.70;74.70;;;;;;1931958;73;21048;-74
2022/06/22 09:11:48;;;;;;;3.92;1.00;;;30.70;73.90;;;;;;1922286;73;21151;-72
2022/06/22 09:14:22;;;;;;;3.72;1.30;;;30.70;73.40;;;;;;1928515;74;21060;-73
2022/06/22 09:16:59;;;;;;;8.88;1.50;;;30.70;73.90;;;;;;1933199;73;21653;-72
2022/06/22 09:19:36;;;;;;;3.95;1.20;;;30.80;73.40;;;;;;1895776;75;21212;-73
2022/06/22 09:22:15;;;;;;;2.87;1.50;;;30.80;72.20;;;;;;1891825;74;21123;-72
2022/06/22 09:24:50;;;;;;;5.30;1.37;;;30.90;72.70;;;;;;1878237;75;21735;-73
2022/06/22 09:27:24;;;;;;;3.15;1.00;;;31.00;73.40;;;;;;1912341;74;21681;-72
2022/06/22 09:30:01;;;;;;;3.60;1.37;;;31.10;74.00;;;;;;1928807;73;21159;-73
2022/06/22 09:32:35;;;;;;;5.78;1.30;;;31.20;73.90;;;;;;1932920;73;21095;-73
2022/06/22 09:35:11;;;;;;;2.98;1.07;;;31.30;73.00;;;;;;1958480;73;21073;-73
2022/06/22 09:37:45;;;;;;;4.50;1.15;;;31.30;73.40;;;;;;1917743;74;21611;-73
2022/06/22 09:40:23;;;;;;;2.35;0.88;;;31.30;73.80;;;;;;1917395;75;21525;-73
2022/06/22 09:43:00;;;;;;;4.25;1.02;;;31.40;73.00;;;;;;1910421;74;21196;-72
2022/06/22 09:45:36;;;;;;;3.90;1.20;;;31.40;73.30;;;;;;1910491;74;21560;-72
2022/06/22 09:48:12;;;;;;;2.07;1.00;;;31.50;73.90;;;;;;1900548;74;21111;-73
2022/06/22 09:50:48;;;;;;;3.98;1.20;;;31.50;74.00;;;;;;1890520;75;21270;-72
2022/06/22 09:53:35;;;;;;;3.87;1.30;;;31.60;74.10;;;;;;1889769;75;21152;-73
2022/06/22 09:58:44;;;;;;;3.40;1.47;;;31.70;74.60;;;;;;1918337;74;21056;-73
2022/06/22 10:01:20;;;;;;;3.75;1.62;;;31.80;73.80;;;;;;1910414;74;21252;-74
2022/06/22 10:03:56;;;;;;;3.50;1.60;;;31.90;73.40;;;;;;1913734;75;21579;-75
2022/06/22 10:06:32;;;;;;;3.08;1.30;;;31.90;73.00;;;;;;1905360;74;21057;-73
2022/06/22 10:09:08;;;;;;;3.25;1.32;;;32.00;72.70;;;;;;1948601;72;21181;-75
2022/06/22 10:11:44;;;;;;;4.05;1.37;;;32.00;72.60;;;;;;1939224;72;21168;-73
2022/06/22 10:14:31;;;;;;;3.70;1.57;;;32.10;73.20;;;;;;1911472;74;21150;-74
2022/06/22 10:17:06;;;;;;;5.33;1.40;;;32.10;73.60;;;;;;1942560;73;21607;-75
2022/06/22 10:19:44;;;;;;;4.95;2.00;;;32.10;73.40;;;;;;1934203;72;21114;-73
2022/06/22 10:22:17;;;;;;;2.58;1.62;;;32.20;73.00;;;;;;1940051;72;21052;-71
2022/06/22 10:24:53;;;;;;;7.30;3.05;;;32.30;72.00;;;;;;1929508;73;21189;-73
2022/06/22 10:27:31;;;;;;;4.28;2.12;;;32.30;72.20;;;;;;1942679;72;21130;-74
2022/06/22 10:30:05;;;;;;;3.10;1.80;;;32.30;72.20;;;;;;1929801;74;21153;-75
2022/06/22 10:32:40;;;;;;;3.22;1.85;;;32.30;72.20;;;;;;1921991;74;21248;-73
2022/06/22 10:35:17;;;;;;;4.20;1.52;;;32.30;72.10;;;;;;1926031;73;21158;-83
2022/06/22 10:37:56;;;;;;;4.40;1.85;;;32.30;72.00;;;;;;1911529;74;21104;-83
2022/06/22 10:45:43;;;;;;;4.17;2.27;;;32.30;73.20;;;;;;1908003;74;21088;-83
2022/06/22 10:48:19;;;;;;;6.33;2.73;;;32.30;73.20;;;;;;1942722;73;21190;-82
2022/06/22 10:50:58;;;;;;;6.40;3.80;;;32.20;73.50;;;;;;1929224;73;21685;-83
2022/06/22 10:53:33;;;;;;;9.45;3.40;;;32.10;73.40;;;;;;1935353;73;21498;-82
2022/06/22 10:56:08;;;;;;;8.98;3.80;;;32.10;73.80;;;;;;1923837;73;21151;-84
2022/06/22 10:58:44;;;;;;;8.90;4.17;;;32.10;74.20;;;;;;1940604;73;21176;-83
2022/06/22 11:01:18;;;;;;;9.48;4.95;;;32.00;74.80;;;;;;1937591;72;21158;-83
2022/06/22 11:03:53;;;;;;;8.20;4.05;;;32.00;75.40;;;;;;1933168;74;21091;-82
2022/06/22 11:06:35;;;;;;;6.03;3.85;;;31.90;75.90;;;;;;1926767;73;21202;-83
2022/06/22 11:09:10;;;;;;;7.67;4.00;;;31.90;76.40;;;;;;1942108;74;21135;-84
2022/06/22 11:11:45;;;;;;;;;;;31.80;76.40;;;;;;1944611;73;21130;-83
2022/06/22 11:14:19;;;;;;;7.97;3.00;;;31.80;76.70;;;;;;1938818;74;20160;-83
2022/06/22 11:17:10;;;;;;;5.03;2.40;;;31.70;77.50;;;;;;1902057;74;21241;-83
2022/06/22 11:19:45;;;;;;;5.33;3.08;;;31.70;78.00;;;;;;1935744;73;21171;-83
2022/06/22 11:22:21;;;;;;;5.25;2.60;;;31.50;78.50;;;;;;1937252;74;21135;-82
2022/06/22 11:25:02;;;;;;;5.03;2.85;;;31.40;79.00;;;;;;1912578;74;21676;-81
2022/06/22 11:31:00;;;;;;;10.05;3.12;;;31.30;80.80;;;;;;1911424;74;21123;-82
2022/06/22 11:32:54;;;;;;;7.37;4.08;;;31.20;81.50;;;;;;1931093;73;21229;-81
2022/06/22 11:35:39;;;;;;;9.10;3.72;;;31.10;82.40;;;;;;1928875;73;21537;-82
2022/06/22 11:38:13;;;;;;;13.28;5.37;;;31.00;82.30;;;;;;1907254;74;21206;-82
2022/06/22 11:40:48;;;;;;;7.72;3.17;;;30.90;82.70;;;;;;1910953;74;21121;-81
2022/06/22 11:43:23;;;;;;;8.33;3.47;;;30.80;82.50;;;;;;1933711;73;21559;-83
2022/06/22 11:46:00;;;;;;;18.17;5.17;;;30.80;82.50;;;;;;1942301;73;21145;-82
2022/06/22 11:48:34;;;;;;;9.73;4.78;;;30.90;82.90;;;;;;1940296;74;21190;-80
2022/06/22 11:51:13;;;;;;;8.65;4.22;;;30.90;83.60;;;;;;1938341;73;21216;-81
2022/06/22 11:53:48;;;;;;;6.67;3.37;;;30.90;83.90;;;;;;1943615;74;21052;-82
2022/06/22 11:56:21;;;;;;;11.75;4.42;;;30.90;83.30;;;;;;1964184;73;21107;-82
2022/06/22 11:59:07;;;;;;;7.12;3.55;;;30.90;83.80;;;;;;1934552;74;22522;-83
2022/06/22 12:01:41;;;;;;;8.15;4.05;;;30.90;82.70;;;;;;1933956;74;21673;-83
2022/06/22 12:04:15;;;;;;;7.78;4.17;;;30.90;82.50;;;;;;1974705;73;21583;-82
2022/06/22 12:06:48;;;;;;;7.58;4.12;;;31.00;82.50;;;;;;1930853;74;21173;-83
2022/06/22 12:09:22;;;;;;;10.30;5.20;;;31.00;82.40;;;;;;1953372;73;21128;-82
2022/06/22 12:11:55;;;;;;;11.35;5.35;;;31.00;82.20;;;;;;1933049;74;21186;-82
2022/06/22 12:17:03;;;;;;;10.30;4.03;;;31.00;82.40;;;;;;1937293;74;21208;-82
2022/06/22 12:19:37;;;;;;;9.18;4.87;;;31.00;82.70;;;;;;1959257;73;21233;-83
2022/06/22 12:22:11;;;;;;;7.47;3.62;;;31.00;82.60;;;;;;1933674;74;21537;-83
2022/06/22 12:24:44;;;;;;;9.33;4.45;;;31.00;83.00;;;;;;1970481;73;21204;-83
2022/06/22 12:27:17;;;;;;;9.95;4.42;;;30.90;83.20;;;;;;1924350;74;21170;-81
2022/06/22 12:29:51;;;;;;;8.15;4.30;;;30.90;83.40;;;;;;1910402;73;21615;-83
2022/06/22 12:32:24;;;;;;;7.25;4.03;;;30.80;83.70;;;;;;1924286;72;21115;-83
2022/06/22 12:35:04;;;;;;;5.95;3.60;;;30.80;84.10;;;;;;1922022;72;21091;-81
2022/06/22 12:37:35;;;;;;;8.08;3.40;;;30.70;84.20;;;;;;1921361;73;21107;-84
2022/06/22 12:40:07;;;;;;;7.33;3.67;;;30.70;84.50;;;;;;1965648;72;21184;-86
2022/06/22 12:42:41;;;;;;;6.55;3.80;;;30.60;84.90;;;;;;1925180;72;21115;-85
2022/06/22 12:45:16;;;;;;;11.00;6.70;;;30.60;85.10;;;;;;1922403;73;21119;-86
2022/06/22 12:47:50;;;;;;;11.83;6.67;;;30.50;84.70;;;;;;1937298;72;21296;-84
2022/06/22 12:50:24;;;;;;;12.85;6.75;;;30.50;84.50;;;;;;1933369;73;21131;-85
2022/06/22 12:52:57;;;;;;;10.05;6.08;;;30.50;84.50;;;;;;1948260;72;21665;-84
2022/06/22 12:55:30;;;;;;;9.25;5.85;;;30.60;84.90;;;;;;1908786;73;21212;-85
2022/06/22 12:58:10;;;;;;;14.15;6.12;;;30.60;85.00;;;;;;1910109;73;21102;-85
2022/06/22 13:00:43;;;;;;;11.35;5.62;;;30.50;85.20;;;;;;1930864;72;21099;-84
2022/06/22 13:03:17;;;;;;;11.15;5.90;;;30.50;85.00;;;;;;1952425;72;21139;-83
2022/06/22 13:05:48;;;;;;;10.30;5.28;;;30.50;85.10;;;;;;1914727;73;21122;-84
2022/06/22 13:08:22;;;;;;;8.30;5.50;;;30.50;85.40;;;;;;1936236;73;21635;-85
2022/06/22 13:10:55;;;;;;;10.45;6.50;;;30.50;85.40;;;;;;1916341;74;21115;-86
2022/06/22 13:13:28;;;;;;;13.88;6.45;;;30.50;85.20;;;;;;1942542;73;21107;-85
2022/06/22 13:16:02;;;;;;;13.83;7.12;;;30.50;85.30;;;;;;1908445;73;21563;-84
2022/06/22 13:18:38;;;;;;;14.58;6.70;;;30.50;85.60;;;;;;1917108;73;21195;-83
2022/06/22 13:21:16;;;;;;;12.80;6.75;;;30.50;85.60;;;;;;1921877;73;21161;-83
2022/06/22 13:23:48;;;;;;;15.38;6.00;;;30.40;84.90;;;;;;1941169;73;21555;-84
2022/06/22 13:26:22;;;;;;;9.78;5.72;;;30.50;85.20;;;;;;1916561;74;21657;-85
2022/06/22 13:28:55;;;;;;;9.48;5.85;;;30.50;85.80;;;;;;1918495;73;21570;-85
2022/06/22 13:31:29;;;;;;;10.90;5.03;;;30.50;85.30;;;;;;1878673;75;21230;-85
2022/06/22 13:34:03;;;;;;;7.00;2.98;;;30.50;85.80;;;;;;1916854;73;21224;-84
2022/06/22 13:36:37;;;;;;;7.22;2.50;;;30.50;86.00;;;;;;1930585;74;21111;-84
2022/06/22 13:39:10;;;;;;;5.00;2.55;;;30.40;86.30;;;;;;1913269;74;21119;-84
2022/06/22 13:41:45;;;;;;;8.53;2.00;;;30.30;86.70;;;;;;1909730;74;21253;-85
2022/06/22 13:44:18;;;;;;;4.60;1.82;;;30.10;86.80;;;;;;1904584;74;21193;-85
2022/06/22 13:46:52;;;;;;;3.27;1.80;;;30.10;87.10;;;;;;1883393;75;21110;-84